Terminal Aerodrome Forecast
Issued by NWS

Home | Current Version | Previous Version | Text Only | Print | Product List | Glossary On
Versions: 1 2 3 4 5 6 7 8 9 10 11 12 13 14
000
FTUS44 KLIX 012300 RRA
TAFMSY
TAF
KMSY 012340Z 0200/0224 18007KT P6SM SCT050 BKN150 OVC200
     FM020500 00000KT P6SM BKN080
     FM021400 09005KT P6SM SCT035 BKN100
     FM021800 14007KT P6SM SCT035 BKN100 PROB30 0219/0224 VRB14G25KT
      2SM TSRA BKN030CB=

USA.gov is the U.S. government's official web portal to all federal, state and local government web resources and services.